Yoder, KS

6:09 PM CDT on October 22, 2014 (GMT -0500)
Newton City County | Change Station
CLOSE
Current Station
Airport
Location: Newton,
Elevation: 1532 ft
Nearby Weather Stations

Elev 1532 ft 38.06 °N, 97.27 °W | Updated 14 minutes ago

Partly Cloudy
Partly Cloudy
72 °F
Feels Like 72 °F
N
14
Wind Variable Wind from South

Today
High -- | Low -- °F
--% Chance of Precip.
Yesterday
High -- | Low -- °F
Precip. -- in
7:46 AM 6:44 PM
Waning Crescent, 1% visible
Pressure 30.06 in
Visibility 10.0 miles
Clouds Clear
Dew Point 52 °F
Humidity 50%
Rainfall 0.00 in
Snow Depth Not available.
UV 0 out of 12
Pollen 3.60 out of 12
Air Quality Not available.
Flu Activity No Activity
METAR KEWK 222255Z AUTO 18012KT 10SM CLR 22/11 A3006 RMK AO1

More Conditions Fewer Conditions

Pressure 30.06 in
Visibility 10.0 miles
Clouds Clear
Dew Point 52 °F
Humidity 50%
Rainfall 0.00 in
Snow Depth Not available.
UV 0 out of 12
Pollen 3.60 out of 12
Air Quality Not available.
Flu Activity No Activity
METAR KEWK 222255Z AUTO 18012KT 10SM CLR 22/11 A3006 RMK AO1

More Conditions Fewer Conditions

10-Day Weather Forecast

Almanac

Astronomy

Oct. 22, 2014 Rise Set
Actual Time 7:46 AM CDT 6:44 PM CDT
Civil Twilight 7:20 AM CDT 7:11 PM CDT
Nautical Twilight 6:49 AM CDT 7:41 PM CDT
Astronomical Twilight 6:18 AM CDT 8:12 PM CDT
Moon 6:30 AM CDT 6:10 PM CDT
Length of Visible Light 11h 51m
Length of Day
10h 57m
Tomorrow will be 2m 17s shorter.
Waning Crescent, 1% of the Moon is Illuminated
Today
Waning Crescent
Oct 23
New
Oct 30
First Quarter
Nov 6
Full
Nov 14
Last Quarter

Today's Extremes

State Highs State Lows

Community

WunderPhotos

Upload Photos

1,764,071 photos uploaded!

WunderBlogs® & News

Nearby

Snow Depth

Station Depth Elevation
No new snow has been reported.

Earthquake Activity

City Distance Mag. Time & Date
Mooreland, Oklahoma 116 miles 2.8 5:31 PM CDT
2014-10-22
Mooreland, Oklahoma 120 miles 2.5 11:19 AM CDT
2014-10-22
Mooreland, Oklahoma 118 miles 2.8 11:04 AM CDT
2014-10-22
Mooreland, Oklahoma 119 miles 3.5 10:58 AM CDT
2014-10-22
Minimum magnitude displayed is 2.5.

Coastal Water Temperatures

Place Temperature
No Stations Reporting

Nearby Weather Stations